Time;durP1;ratioP1;P1;durP2;ratioP2;P2;SDS_P1;SDS_P2;PMS_P1;PMS_P2;Temp;Humidity;BMP_temperature;BMP_pressure;BME280_temperature;BME280_humidity;BME280_pressure;Samples;Min_cycle;Max_cycle;Signal;HPM_P1;HPM_P2
2022/11/13 00:02:13;;;;;;;35.57;23.60;;;;;;;-142.65;88.92;50170.78;5117846;28;20713;-70
2022/11/13 00:04:59;;;;;;;34.83;22.53;;;;;;;-142.65;88.98;50176.75;5117648;28;20176;-70
2022/11/13 00:07:43;;;;;;;39.10;23.33;;;;;;;-142.65;89.02;50174.75;5117559;28;20180;-70
2022/11/13 00:10:28;;;;;;;39.43;24.07;;;;;;;-142.65;89.17;50178.75;5117515;28;20259;-70
2022/11/13 00:13:13;;;;;;;40.53;24.27;;;;;;;-142.65;89.14;50180.75;5117435;28;20212;-70
2022/11/13 00:16:00;;;;;;;40.30;24.53;;;;;;;-142.65;89.13;50176.75;5117140;28;20224;-70
2022/11/13 00:18:45;;;;;;;49.00;24.20;;;;;;;-142.65;89.22;50172.78;5117383;28;20555;-70
2022/11/13 00:21:30;;;;;;;35.93;22.07;;;;;;;-142.65;89.29;50182.72;5117627;28;20578;-70
2022/11/13 00:24:15;;;;;;;36.53;23.07;;;;;;;-142.65;89.23;50178.75;5117553;28;20535;-70
2022/11/13 00:27:00;;;;;;;38.80;24.70;;;;;;;-142.65;89.44;50178.75;5117221;28;20656;-70
2022/11/13 00:29:45;;;;;;;49.67;25.13;;;;;;;-142.65;89.50;50174.75;5117519;28;20183;-70
2022/11/13 00:32:30;;;;;;;38.50;24.70;;;;;;;-142.65;89.68;50170.78;5116979;28;20278;-70
2022/11/13 00:35:15;;;;;;;44.77;25.77;;;;;;;-142.65;89.86;50178.75;5116710;28;20211;-70
2022/11/13 00:38:00;;;;;;;37.97;23.80;;;;;;;-142.65;89.94;50180.75;5117046;28;20230;-70
2022/11/13 00:40:44;;;;;;;39.33;23.13;;;;;;;-142.65;90.12;50168.78;5117185;28;20247;-70
2022/11/13 00:43:29;;;;;;;41.97;25.90;;;;;;;-142.65;90.22;50180.75;5117164;28;20246;-70
2022/11/13 00:46:14;;;;;;;45.27;24.07;;;;;;;-142.65;90.26;50178.75;5117404;28;20633;-70
2022/11/13 00:48:59;;;;;;;50.37;26.80;;;;;;;-142.65;90.36;50168.78;5117027;28;20279;-70
2022/11/13 00:51:44;;;;;;;49.17;28.20;;;;;;;-142.65;90.38;50180.75;5116600;28;20646;-70
2022/11/13 00:54:29;;;;;;;51.90;28.00;;;;;;;-142.65;90.50;50174.75;5116565;28;20208;-70
2022/11/13 00:57:13;;;;;;;46.13;25.90;;;;;;;-142.65;90.43;50178.75;5115927;28;20183;-70
2022/11/13 00:59:58;;;;;;;39.23;22.73;;;;;;;-142.65;90.50;50180.75;5116939;28;20642;-70
2022/11/13 01:02:43;;;;;;;38.77;24.67;;;;;;;-142.65;90.53;50170.78;5116341;28;20230;-70
2022/11/13 01:05:28;;;;;;;42.60;25.80;;;;;;;-142.65;90.61;50178.75;5116901;28;20638;-70
2022/11/13 01:08:13;;;;;;;40.13;25.37;;;;;;;;;;5116722;28;20180;-69
2022/11/13 01:10:58;;;;;;;45.87;25.10;;;;;;;-142.65;90.71;50178.75;5116653;28;20187;-70
2022/11/13 01:13:46;;;;;;;37.50;24.80;;;;;;;-142.65;90.74;50176.75;5116324;28;20274;-70
2022/11/13 01:16:30;;;;;;;41.17;23.87;;;;;;;-142.65;90.84;50180.75;5115809;28;20375;-70
2022/11/13 01:19:16;;;;;;;40.67;23.50;;;;;;;-142.65;90.94;50176.75;5116553;28;20692;-70
2022/11/13 01:22:00;;;;;;;35.20;22.37;;;;;;;-142.65;90.95;50178.75;5116650;28;20265;-70
2022/11/13 01:24:45;;;;;;;39.53;25.27;;;;;;;-142.65;91.08;50180.75;5116664;28;20257;-70
2022/11/13 01:27:30;;;;;;;37.70;24.07;;;;;;;-142.65;91.18;50180.75;5116346;28;20185;-70
2022/11/13 01:30:15;;;;;;;36.00;23.17;;;;;;;-142.65;91.20;50174.75;5116296;28;20208;-70
2022/11/13 01:33:00;;;;;;;43.83;25.23;;;;;;;-142.65;91.40;50180.75;5116258;28;20294;-70
2022/11/13 01:35:45;;;;;;;33.20;23.10;;;;;;;-142.65;91.28;50180.75;5115699;28;20728;-70
2022/11/13 01:38:30;;;;;;;36.03;22.50;;;;;;;-142.65;91.41;50178.75;5116079;28;20185;-70
2022/11/13 01:41:22;;;;;;;30.87;21.93;;;;;;;-142.65;91.49;50178.75;5116057;28;20196;-70
2022/11/13 01:44:16;;;;;;;37.10;23.17;;;;;;;-142.65;91.47;50174.75;5116012;28;20184;-70
2022/11/13 01:47:02;;;;;;;41.07;23.97;;;;;;;-142.65;91.36;50178.75;5115676;28;20192;-70
2022/11/13 01:49:50;;;;;;;39.30;22.20;;;;;;;-142.65;91.33;50182.72;5100239;28;20179;-70
2022/11/13 01:52:38;;;;;;;35.73;22.60;;;;;;;-142.65;91.44;50176.75;5115508;28;20595;-70
2022/11/13 01:55:23;;;;;;;39.10;23.50;;;;;;;-142.65;91.17;50176.75;5115895;28;20718;-70
2022/11/13 01:58:09;;;;;;;31.80;21.30;;;;;;;-142.65;91.31;50172.78;5115516;28;20183;-69
2022/11/13 02:00:54;;;;;;;32.13;21.10;;;;;;;-142.65;91.23;50178.75;5115663;28;20186;-69
2022/11/13 02:03:39;;;;;;;36.43;21.67;;;;;;;-142.65;91.33;50178.75;5115294;28;20815;-70
2022/11/13 02:06:28;;;;;;;35.97;23.50;;;;;;;-142.65;91.40;50178.75;5115518;28;20180;-70
2022/11/13 02:09:16;;;;;;;31.33;21.30;;;;;;;-142.65;91.33;50180.75;5114513;28;20184;-70
2022/11/13 02:12:04;;;;;;;37.23;23.13;;;;;;;-142.65;91.33;50178.75;5114851;28;20228;-70
2022/11/13 02:14:52;;;;;;;36.67;21.93;;;;;;;-142.65;91.52;50178.75;5114948;28;20208;-70
2022/11/13 02:17:47;;;;;;;38.93;25.57;;;;;;;-142.65;91.44;50170.78;5115063;28;20179;-70
2022/11/13 02:20:43;;;;;;;38.60;22.97;;;;;;;-142.65;91.41;50180.75;5115002;28;20179;-70
2022/11/13 02:23:40;;;;;;;38.53;22.73;;;;;;;-142.65;91.47;50178.75;5115446;28;20216;-70
2022/11/13 02:26:27;;;;;;;32.53;22.43;;;;;;;-142.65;91.57;50180.75;5115135;28;20219;-70
2022/11/13 02:29:12;;;;;;;38.60;21.77;;;;;;;-142.65;91.61;50178.75;5114937;28;20249;-70
2022/11/13 02:31:57;;;;;;;37.53;23.90;;;;;;;-142.65;91.53;50178.75;5115021;28;20257;-70
2022/11/13 02:34:42;;;;;;;38.43;22.90;;;;;;;-142.65;91.45;50178.75;5114946;28;20211;-70
2022/11/13 02:37:26;;;;;;;39.97;23.43;;;;;;;-142.65;91.38;50178.75;5114315;28;20298;-70
2022/11/13 02:40:12;;;;;;;36.30;23.13;;;;;;;-142.65;91.31;50178.75;5114956;28;20580;-70
2022/11/13 02:42:57;;;;;;;33.73;21.93;;;;;;;-142.65;91.44;50168.78;5114778;28;20217;-70
2022/11/13 02:45:42;;;;;;;35.67;21.53;;;;;;;-142.65;91.53;50174.75;5114810;28;20185;-70
2022/11/13 02:48:27;;;;;;;33.57;22.73;;;;;;;;;;5114786;28;20645;-70
2022/11/13 02:51:13;;;;;;;31.63;22.43;;;;;;;-142.65;91.62;50174.75;5114770;28;20180;-70
2022/11/13 02:53:58;;;;;;;32.77;20.90;;;;;;;-142.65;91.65;50172.78;5114412;28;20705;-70
2022/11/13 02:56:43;;;;;;;33.20;20.80;;;;;;;-142.65;91.68;50180.75;5114346;28;20321;-70
2022/11/13 02:59:28;;;;;;;30.93;20.87;;;;;;;-142.65;91.85;50178.75;5114632;28;20183;-70
2022/11/13 03:02:12;;;;;;;34.30;21.23;;;;;;;-142.65;91.80;50180.75;5114465;28;20333;-70
2022/11/13 03:04:57;;;;;;;33.07;20.20;;;;;;;-142.65;91.94;50176.75;5114561;28;20226;-70
2022/11/13 03:07:56;;;;;;;33.53;21.43;;;;;;;-142.65;92.03;50170.78;5114453;28;20176;-70
2022/11/13 03:10:41;;;;;;;41.13;22.67;;;;;;;-142.65;91.79;50178.75;5114517;28;20669;-70
2022/11/13 03:13:26;;;;;;;29.13;20.20;;;;;;;-142.65;91.89;50172.78;5114195;28;20221;-70
2022/11/13 03:16:14;;;;;;;36.13;22.50;;;;;;;-142.65;92.04;50174.75;5113915;28;20362;-70
2022/11/13 03:18:59;;;;;;;35.93;22.00;;;;;;;-142.65;91.81;50170.78;5114084;28;20187;-69
2022/11/13 03:21:44;;;;;;;43.53;22.57;;;;;;;-142.65;91.89;50178.75;5114553;28;20183;-70
2022/11/13 03:24:29;;;;;;;31.90;20.73;;;;;;;-142.65;91.92;50180.75;5114311;28;20642;-70
2022/11/13 03:27:14;;;;;;;30.00;21.07;;;;;;;-142.65;91.97;50172.78;5114230;28;20195;-70
2022/11/13 03:29:58;;;;;;;31.47;20.60;;;;;;;-142.65;91.98;50180.75;5114021;28;20179;-70
2022/11/13 03:32:43;;;;;;;32.60;21.33;;;;;;;-142.65;92.08;50174.75;5114179;28;20285;-70
2022/11/13 03:35:28;;;;;;;35.63;22.03;;;;;;;-142.65;92.03;50178.75;5114085;28;20198;-70
2022/11/13 03:38:17;;;;;;;35.30;21.13;;;;;;;-142.65;92.07;50178.75;5114189;28;20636;-70
2022/11/13 03:41:03;;;;;;;33.10;21.80;;;;;;;-142.65;92.08;50178.75;5114147;28;20317;-70
2022/11/13 03:43:48;;;;;;;31.23;20.70;;;;;;;-142.65;92.06;50180.75;5113796;28;20285;-70
2022/11/13 03:46:33;;;;;;;37.80;21.90;;;;;;;-142.65;91.92;50176.75;5113839;28;20695;-70
2022/11/13 03:49:18;;;;;;;32.30;21.40;;;;;;;-142.65;91.90;50180.75;5114106;28;20696;-70
2022/11/13 03:52:03;;;;;;;34.03;21.87;;;;;;;-142.65;91.87;50180.75;5113994;28;20215;-70
2022/11/13 03:54:48;;;;;;;31.30;19.60;;;;;;;-142.65;91.92;50174.75;5113907;28;20186;-70
2022/11/13 03:57:32;;;;;;;33.10;22.23;;;;;;;-142.65;91.95;50178.75;5113713;28;20187;-70
2022/11/13 04:00:17;;;;;;;31.80;21.40;;;;;;;-142.65;91.84;50180.75;5113978;28;20173;-70
2022/11/13 04:03:02;;;;;;;27.90;19.67;;;;;;;-142.65;91.86;50178.75;5113579;28;20602;-70
2022/11/13 04:05:48;;;;;;;32.47;20.23;;;;;;;-142.65;92.11;50178.75;5113399;28;20316;-70
2022/11/13 04:08:34;;;;;;;29.93;21.73;;;;;;;-142.65;92.11;50178.75;5113924;28;20191;-70
2022/11/13 04:11:19;;;;;;;32.20;21.10;;;;;;;-142.65;92.09;50170.78;5113957;28;20185;-70
2022/11/13 04:14:04;;;;;;;28.80;19.57;;;;;;;-142.65;92.14;50180.75;5113480;28;20215;-70
2022/11/13 04:16:49;;;;;;;37.93;21.77;;;;;;;-142.65;92.25;50178.75;5113033;28;20219;-70
2022/11/13 04:19:34;;;;;;;36.63;21.43;;;;;;;-142.65;92.28;50178.75;5113243;28;20545;-70
2022/11/13 04:22:18;;;;;;;30.67;20.53;;;;;;;-142.65;92.26;50180.75;5113174;28;20266;-70
2022/11/13 04:25:04;;;;;;;32.63;20.60;;;;;;;-142.65;92.37;50180.75;5113201;28;20550;-70
2022/11/13 04:27:50;;;;;;;31.07;20.53;;;;;;;-142.65;92.35;50182.72;5113708;28;20535;-70
2022/11/13 04:30:35;;;;;;;33.37;21.17;;;;;;;-142.65;92.40;50174.75;5113822;28;20545;-70
2022/11/13 04:33:20;;;;;;;39.83;20.60;;;;;;;-142.65;92.41;50178.75;5116815;28;20244;-70
2022/11/13 04:36:06;;;;;;;31.27;20.90;;;;;;;-142.65;92.49;50178.75;5116885;28;20322;-70
2022/11/13 04:38:51;;;;;;;33.53;21.03;;;;;;;-142.65;92.54;50182.72;5117583;28;20181;-70
2022/11/13 04:44:39;;;;;;;29.17;20.73;;;;;;;;;;5117200;28;20219;-70
2022/11/13 04:47:24;;;;;;;29.93;18.70;;;;;;;-142.65;92.48;50182.72;5117417;28;20180;-70
2022/11/13 04:50:09;;;;;;;39.00;19.50;;;;;;;-142.65;92.58;50174.75;5116794;28;20184;-70
2022/11/13 04:52:54;;;;;;;30.07;20.77;;;;;;;-142.65;92.57;50174.75;5116937;28;20216;-70
2022/11/13 04:55:39;;;;;;;29.80;19.90;;;;;;;-142.65;92.59;50180.75;5116630;28;20278;-70
2022/11/13 04:58:23;;;;;;;33.90;21.17;;;;;;;-142.65;92.70;50182.72;5117039;28;20254;-70
2022/11/13 05:01:09;;;;;;;31.20;20.20;;;;;;;-142.65;92.70;50176.75;5117119;28;20236;-70
2022/11/13 05:03:54;;;;;;;33.57;20.57;;;;;;;-142.65;92.67;50174.75;5116523;28;20578;-70
2022/11/13 05:06:39;;;;;;;28.87;20.13;;;;;;;-142.65;92.67;50180.75;5116763;28;20178;-70
2022/11/13 05:09:24;;;;;;;36.93;19.57;;;;;;;-142.65;92.71;50180.75;5116737;28;20183;-70
2022/11/13 05:12:09;;;;;;;31.93;19.40;;;;;;;-142.65;92.97;50180.75;5116080;28;20216;-70
2022/11/13 05:14:54;;;;;;;35.63;20.77;;;;;;;-142.65;93.03;50178.75;5116167;28;20185;-70
2022/11/13 05:17:38;;;;;;;29.87;20.63;;;;;;;-142.65;93.02;50178.75;5115906;28;20215;-70
2022/11/13 05:20:23;;;;;;;29.00;21.10;;;;;;;-142.65;93.07;50182.72;5116244;28;20170;-70
2022/11/13 05:23:08;;;;;;;28.30;20.30;;;;;;;-142.65;92.91;50182.72;5116130;28;20232;-70
2022/11/13 05:26:00;;;;;;;32.37;22.37;;;;;;;-142.65;92.81;50174.75;5116139;28;20177;-70
2022/11/13 05:28:45;;;;;;;26.50;19.37;;;;;;;-142.65;93.00;50180.75;5116377;28;20289;-70
2022/11/13 05:31:30;;;;;;;32.33;20.23;;;;;;;-142.65;92.94;50176.75;5116317;28;20177;-70
2022/11/13 05:34:14;;;;;;;35.53;20.57;;;;;;;-142.65;92.87;50174.75;5115945;28;20223;-70
2022/11/13 05:36:59;;;;;;;28.80;20.00;;;;;;;-142.65;92.80;50174.75;5115979;28;20212;-70
2022/11/13 05:39:44;;;;;;;26.50;19.40;;;;;;;-142.65;92.87;50176.75;5116131;28;20173;-70
2022/11/13 05:42:29;;;;;;;31.57;19.87;;;;;;;;;;5115497;28;20702;-70
2022/11/13 05:45:14;;;;;;;28.30;19.40;;;;;;;-142.65;92.74;50178.75;5115755;28;20541;-70
2022/11/13 05:47:59;;;;;;;28.17;20.93;;;;;;;-142.65;92.66;50180.75;5115946;28;20181;-70
2022/11/13 05:50:44;;;;;;;34.53;20.67;;;;;;;-142.65;92.46;50180.75;5115639;28;20176;-70
2022/11/13 05:53:29;;;;;;;25.00;19.40;;;;;;;-142.65;92.42;50178.75;5115249;28;20271;-70
2022/11/13 05:56:16;;;;;;;29.67;19.20;;;;;;;-142.65;92.54;50180.75;5115642;28;20207;-70
2022/11/13 05:59:03;;;;;;;39.90;21.67;;;;;;;-142.65;92.57;50182.72;5115747;28;20226;-70
2022/11/13 06:01:47;;;;;;;26.43;19.80;;;;;;;-142.65;92.69;50178.75;5115333;28;20275;-70
2022/11/13 06:04:32;;;;;;;32.67;19.60;;;;;;;-142.65;92.71;50182.72;5115634;28;20259;-70
2022/11/13 06:07:17;;;;;;;32.93;19.33;;;;;;;-142.65;92.82;50178.75;5115529;28;20656;-70
2022/11/13 06:10:02;;;;;;;27.00;19.23;;;;;;;-142.65;92.89;50178.75;5115806;28;20181;-70
2022/11/13 06:12:47;;;;;;;30.90;19.07;;;;;;;-142.65;92.82;50178.75;5115533;28;20211;-70
2022/11/13 06:15:32;;;;;;;26.03;19.47;;;;;;;-142.65;92.75;50178.75;5115270;28;20207;-70
2022/11/13 06:18:23;;;;;;;27.20;19.00;;;;;;;-142.65;92.68;50180.75;5115087;28;20264;-70
2022/11/13 06:21:16;;;;;;;29.27;19.60;;;;;;;-142.65;92.56;50180.75;5115034;28;20176;-70
2022/11/13 06:24:01;;;;;;;26.90;19.03;;;;;;;-142.65;92.54;50182.72;5115167;28;20211;-70
2022/11/13 06:26:46;;;;;;;29.27;19.13;;;;;;;-142.65;92.60;50182.72;5115215;28;20196;-70
2022/11/13 06:29:31;;;;;;;26.67;18.57;;;;;;;-142.65;92.46;50180.75;5115171;28;20201;-70
2022/11/13 06:32:16;;;;;;;40.17;19.00;;;;;;;-142.65;92.48;50180.75;5114807;28;20314;-70
2022/11/13 06:35:01;;;;;;;29.83;19.80;;;;;;;-142.65;92.42;50172.78;5115292;28;20312;-70
2022/11/13 06:37:46;;;;;;;30.53;18.80;;;;;;;-142.65;92.35;50178.75;5114657;28;20555;-70
2022/11/13 06:40:31;;;;;;;28.97;18.47;;;;;;;-142.65;92.40;50180.75;5115227;28;20176;-70
2022/11/13 06:43:15;;;;;;;27.73;18.07;;;;;;;-142.65;92.46;50176.75;5114532;28;20717;-70
2022/11/13 06:46:11;;;;;;;25.50;19.30;;;;;;;-142.65;92.42;50180.75;5114605;28;20176;-70
2022/11/13 06:48:57;;;;;;;30.40;19.50;;;;;;;-142.65;92.46;50182.72;5115036;28;20711;-70
2022/11/13 06:51:42;;;;;;;30.33;19.17;;;;;;;-142.65;92.47;50182.72;5114161;28;20280;-70
2022/11/13 06:54:27;;;;;;;30.17;18.17;;;;;;;-142.65;92.53;50180.75;5114099;28;20299;-70
2022/11/13 06:57:12;;;;;;;31.30;19.77;;;;;;;-142.65;92.54;50180.75;5114497;28;20631;-70
2022/11/13 06:59:56;;;;;;;24.67;18.87;;;;;;;-142.65;92.40;50178.75;5114376;28;20180;-70
2022/11/13 07:02:41;;;;;;;31.97;19.97;;;;;;;-142.65;92.43;50178.75;5114556;28;20277;-70
2022/11/13 07:05:26;;;;;;;28.27;20.00;;;;;;;-142.65;92.35;50176.75;5114533;28;20176;-70
2022/11/13 07:08:12;;;;;;;29.83;20.57;;;;;;;-142.65;92.35;50172.78;5114550;28;20181;-70
2022/11/13 07:10:57;;;;;;;26.50;19.77;;;;;;;-142.65;92.49;50182.72;5114246;28;20637;-70
2022/11/13 07:13:43;;;;;;;27.23;19.20;;;;;;;-142.65;92.62;50178.75;5113864;28;20595;-70
2022/11/13 07:16:28;;;;;;;29.27;18.10;;;;;;;-142.65;92.50;50178.75;5114096;28;20231;-70
2022/11/13 07:19:33;;;;;;;27.97;19.03;;;;;;;-142.65;92.57;50178.75;5114311;28;20183;-70
2022/11/13 07:22:17;;;;;;;33.30;20.90;;;;;;;-142.65;92.56;50180.75;5114201;28;20605;-70
2022/11/13 07:25:02;;;;;;;30.37;20.07;;;;;;;-142.65;92.57;50182.72;5114600;28;20637;-70
2022/11/13 07:27:47;;;;;;;32.43;20.37;;;;;;;-142.65;92.68;50180.75;5114322;28;20254;-70
2022/11/13 07:30:33;;;;;;;39.17;21.87;;;;;;;-142.65;92.71;50178.75;5114215;28;20196;-70
2022/11/13 07:33:21;;;;;;;32.20;19.73;;;;;;;-142.65;92.73;50180.75;5113992;28;20216;-70
2022/11/13 07:36:07;;;;;;;29.07;19.63;;;;;;;-142.65;92.81;50174.75;5114123;28;20204;-70
2022/11/13 07:38:52;;;;;;;42.13;21.27;;;;;;;-142.65;92.87;50178.75;5114151;28;20184;-70
2022/11/13 07:41:43;;;;;;;42.17;22.27;;;;;;;-142.65;92.96;50182.72;5114105;28;20601;-70
2022/11/13 07:44:27;;;;;;;33.53;20.90;;;;;;;-142.65;93.07;50178.75;5114135;28;20184;-70
2022/11/13 07:47:32;;;;;;;39.27;20.57;;;;;;;-142.65;93.02;50168.78;5113955;28;20176;-70
2022/11/13 07:50:17;;;;;;;31.43;21.20;;;;;;;-142.65;93.04;50180.75;5113800;28;20178;-70
2022/11/13 07:53:04;;;;;;;31.03;20.97;;;;;;;-142.65;93.21;50182.72;5113753;28;20701;-70
2022/11/13 07:55:49;;;;;;;38.83;21.93;;;;;;;-142.65;93.46;50178.75;5113950;28;20269;-70
2022/11/13 07:58:34;;;;;;;36.23;21.67;;;;;;;-142.65;93.58;50172.78;5114192;28;20197;-70
2022/11/13 08:01:19;;;;;;;34.53;22.93;;;;;;;-142.65;93.69;50178.75;5113628;28;20181;-70
2022/11/13 08:04:04;;;;;;;48.37;23.77;;;;;;;-142.65;93.91;50178.75;5113899;28;20582;-70
2022/11/13 08:06:48;;;;;;;30.40;20.37;;;;;;;-142.65;94.18;50178.75;5115846;28;20559;-70
2022/11/13 08:09:33;;;;;;;32.87;21.60;;;;;;;-142.65;94.38;50178.75;5117923;28;20185;-70
2022/11/13 08:12:18;;;;;;;32.80;21.90;;;;;;;-142.65;94.61;50184.72;5117491;28;20216;-70
2022/11/13 08:15:03;;;;;;;29.23;22.03;;;;;;;-142.65;94.65;50178.75;5117663;28;20203;-70
2022/11/13 08:17:59;;;;;;;32.73;23.27;;;;;;;-142.65;94.83;50180.75;5117469;28;20192;-70
2022/11/13 08:20:44;;;;;;;39.73;24.87;;;;;;;-142.65;94.93;50178.75;5117380;28;20178;-70
2022/11/13 08:23:29;;;;;;;41.93;25.23;;;;;;;-142.65;94.96;50178.75;5117616;28;20216;-70
2022/11/13 08:26:16;;;;;;;37.47;23.57;;;;;;;-142.65;94.85;50182.72;5117569;28;20586;-70
2022/11/13 08:29:01;;;;;;;31.77;23.33;;;;;;;-142.65;94.61;50170.78;5117492;28;20266;-70
2022/11/13 08:31:46;;;;;;;39.93;23.87;;;;;;;-142.65;94.33;50178.75;5117098;28;20182;-70
2022/11/13 08:34:31;;;;;;;34.20;22.97;;;;;;;-142.65;93.64;50174.75;5116887;28;20182;-70
2022/11/13 08:37:15;;;;;;;33.67;23.23;;;;;;;-142.65;93.02;50180.75;5117051;28;20336;-70
2022/11/13 08:40:00;;;;;;;35.00;23.13;;;;;;;-142.65;92.70;50178.75;5117297;28;20221;-70
2022/11/13 08:42:45;;;;;;;34.73;23.70;;;;;;;-142.65;91.23;50178.75;5116921;28;20221;-70
2022/11/13 08:45:30;;;;;;;39.27;22.33;;;;;;;-142.65;90.20;50178.75;5117446;28;20195;-70
2022/11/13 08:48:16;;;;;;;27.47;20.00;;;;;;;-142.65;89.40;50178.75;5116878;28;20175;-70
2022/11/13 08:51:01;;;;;;;28.90;20.80;;;;;;;-142.65;88.42;50174.75;5117116;28;20191;-70
2022/11/13 08:53:46;;;;;;;26.30;19.73;;;;;;;-142.65;87.28;50180.75;5116986;28;20285;-70
2022/11/13 08:56:31;;;;;;;27.57;19.23;;;;;;;-142.65;86.44;50178.75;5116912;28;20203;-70
2022/11/13 08:59:16;;;;;;;30.27;20.47;;;;;;;-142.65;86.18;50174.75;5117242;28;20180;-70
2022/11/13 09:02:01;;;;;;;25.87;17.57;;;;;;;-142.65;85.27;50182.72;5117073;28;20705;-70
2022/11/13 09:04:46;;;;;;;23.17;18.30;;;;;;;-142.65;84.29;50164.81;5116587;28;20195;-70
2022/11/13 09:07:30;;;;;;;22.97;18.50;;;;;;;-142.65;83.22;50174.75;5116793;28;20673;-69
2022/11/13 09:10:18;;;;;;;28.93;18.33;;;;;;;-142.65;83.01;50170.78;5116805;28;20270;-69
2022/11/13 09:13:04;;;;;;;23.90;18.70;;;;;;;;;;5116362;28;20627;-70
2022/11/13 09:15:49;;;;;;;19.60;15.63;;;;;;;-142.65;82.42;50170.78;5116395;28;20211;-69
2022/11/13 09:18:33;;;;;;;20.33;16.93;;;;;;;-142.65;81.96;50174.75;5115474;28;20189;-69
2022/11/13 09:21:18;;;;;;;20.67;16.97;;;;;;;-142.65;81.56;50180.75;5116507;28;20235;-69
2022/11/13 09:24:03;;;;;;;17.87;15.97;;;;;;;-142.65;78.77;50168.78;5116163;28;20208;-70
2022/11/13 09:26:48;;;;;;;20.83;15.20;;;;;;;-142.65;77.47;50170.78;5116141;28;20176;-70
2022/11/13 09:29:34;;;;;;;19.13;15.00;;;;;;;-142.65;76.47;50172.78;5116063;28;20649;-70
2022/11/13 09:32:20;;;;;;;21.57;15.40;;;;;;;-142.65;75.48;50172.78;5116294;28;20295;-70
2022/11/13 09:35:04;;;;;;;20.20;15.60;;;;;;;;;;5116254;28;20195;-70
2022/11/13 09:37:52;;;;;;;20.33;14.87;;;;;;;-142.65;74.54;50170.78;5116045;28;20214;-70
2022/11/13 09:40:47;;;;;;;21.97;15.30;;;;;;;-142.65;73.49;50174.75;5116129;28;20257;-70
2022/11/13 09:43:35;;;;;;;16.33;14.20;;;;;;;-142.65;71.35;50172.78;5115502;28;20274;-70
2022/11/13 09:46:37;;;;;;;15.93;14.20;;;;;;;-142.65;70.05;50172.78;5115946;28;20268;-70
2022/11/13 09:49:28;;;;;;;21.20;14.93;;;;;;;-142.65;69.65;50170.78;5115435;28;20172;-70
2022/11/13 09:52:36;;;;;;;18.30;15.53;;;;;;;-142.65;69.33;50174.75;5115563;28;20576;-70
2022/11/13 09:55:28;;;;;;;17.00;14.97;;;;;;;-142.65;68.64;50168.78;5115843;28;20197;-70
2022/11/13 09:58:22;;;;;;;16.13;13.30;;;;;;;-142.65;68.62;50168.78;5115470;28;20566;-70
2022/11/13 10:01:16;;;;;;;15.77;14.07;;;;;;;-142.65;67.99;50164.81;5100344;28;20181;-70
2022/11/13 10:04:06;;;;;;;13.80;12.40;;;;;;;-142.65;66.51;50172.78;5115596;28;20208;-70
2022/11/13 10:07:13;;;;;;;14.07;12.67;;;;;;;-142.65;66.29;50172.78;5115600;28;20176;-70
2022/11/13 10:10:28;;;;;;;11.70;10.80;;;;;;;-142.65;65.65;50168.78;5115256;28;20180;-67
2022/11/13 10:13:19;;;;;;;11.77;10.87;;;;;;;-142.65;64.71;50170.78;5115457;28;20215;-69
2022/11/13 10:16:28;;;;;;;11.80;10.87;;;;;;;-142.65;64.82;50178.75;5115158;28;20200;-68
2022/11/13 10:19:31;;;;;;;13.00;11.50;;;;;;;-142.65;64.07;50162.81;5115211;28;20181;-68
2022/11/13 10:22:19;;;;;;;13.00;11.00;;;;;;;;;;5099916;28;20274;-68
2022/11/13 10:25:31;;;;;;;11.37;10.50;;;;;;;-142.65;62.38;50172.78;5114968;28;20729;-69
2022/11/13 10:28:22;;;;;;;10.83;9.83;;;;;;;-142.65;62.79;50170.78;5114617;28;20191;-69
2022/11/13 10:31:27;;;;;;;12.03;10.83;;;;;;;;;;5115068;28;20642;-69
2022/11/13 10:34:13;;;;;;;11.27;10.27;;;;;;;-142.65;60.73;50170.78;5115334;28;20184;-69
2022/11/13 10:37:07;;;;;;;11.57;10.30;;;;;;;;;;5114953;28;20210;-69
2022/11/13 10:39:52;;;;;;;10.93;10.07;;;;;;;-142.65;60.41;50170.78;5114735;28;20243;-69
2022/11/13 10:42:40;;;;;;;9.93;9.13;;;;;;;-142.65;59.74;50174.75;5114769;28;20346;-69
2022/11/13 10:45:25;;;;;;;10.33;9.53;;;;;;;-142.65;60.10;50164.81;5114894;28;20645;-69
2022/11/13 10:48:26;;;;;;;10.60;9.83;;;;;;;-142.65;59.12;50168.78;5114587;28;20638;-69
2022/11/13 10:51:28;;;;;;;9.53;8.90;;;;;;;;;;5114696;28;20176;-69
2022/11/13 10:54:23;;;;;;;9.27;8.40;;;;;;;;;;5114731;28;20226;-69
2022/11/13 10:57:20;;;;;;;8.53;7.83;;;;;;;;;;5114541;28;20200;-69
2022/11/13 11:00:19;;;;;;;7.63;7.33;;;;;;;-142.65;55.70;50174.75;5114369;28;20234;-69
2022/11/13 11:03:15;;;;;;;8.30;7.73;;;;;;;;;;5114637;28;20216;-69
2022/11/13 11:06:02;;;;;;;8.20;7.80;;;;;;;-142.65;55.62;50164.81;5114364;28;20570;-69
2022/11/13 11:08:47;;;;;;;8.43;7.93;;;;;;;-142.65;54.58;50170.78;5114182;28;20172;-69
2022/11/13 11:14:43;;;;;;;7.53;6.90;;;;;;;-142.65;53.92;50170.78;5114589;28;20261;-69
2022/11/13 11:17:32;;;;;;;6.77;6.57;;;;;;;-142.65;53.26;50170.78;5114548;28;20266;-69
2022/11/13 11:20:45;;;;;;;6.57;6.17;;;;;;;-142.65;51.57;50168.78;5114028;28;20188;-69
2022/11/13 11:23:57;;;;;;;6.70;6.40;;;;;;;-142.65;50.80;50118.97;5114066;28;20204;-69
2022/11/13 11:26:52;;;;;;;5.80;5.37;;;;;;;-142.65;50.36;50170.78;5089148;28;20270;-69
2022/11/13 11:29:42;;;;;;;6.20;6.00;;;;;;;-142.65;49.27;50170.78;5113917;28;20646;-69
2022/11/13 11:32:37;;;;;;;5.90;5.80;;;;;;;;;;5113848;28;20318;-69
2022/11/13 11:35:40;;;;;;;6.13;5.93;;;;;;;-142.65;50.75;50170.78;5113972;28;20538;-69
2022/11/13 11:38:41;;;;;;;6.23;6.13;;;;;;;-142.65;50.12;50170.78;5113593;28;20196;-69
2022/11/13 11:41:45;;;;;;;6.00;5.90;;;;;;;-142.65;48.81;50168.78;5117345;28;20254;-69
2022/11/13 11:44:35;;;;;;;5.97;5.73;;;;;;;;;;5118187;28;20180;-69
2022/11/13 11:47:20;;;;;;;6.20;6.00;;;;;;;;;;5118553;28;20210;-69
2022/11/13 11:50:12;;;;;;;6.47;6.10;;;;;;;-142.65;48.02;50172.78;5118311;28;20311;-69
2022/11/13 11:53:11;;;;;;;5.70;5.60;;;;;;;;;;5118366;28;20208;-69
2022/11/13 11:56:05;;;;;;;5.37;5.17;;;;;;;;;;5118394;28;20526;-69
2022/11/13 11:58:59;;;;;;;6.60;6.07;;;;;;;;;;5117511;28;20282;-69
2022/11/13 12:01:56;;;;;;;5.93;5.73;;;;;;;;;;5118240;28;20177;-69
2022/11/13 12:04:48;;;;;;;5.60;5.50;;;;;;;-142.65;49.05;50168.78;5117733;28;20179;-69
2022/11/13 12:07:51;;;;;;;6.23;6.13;;;;;;;;;;5117982;28;20177;-69
2022/11/13 12:10:47;;;;;;;5.90;5.80;;;;;;;-142.65;46.61;50170.78;5117454;28;20184;-69
2022/11/13 12:13:40;;;;;;;5.70;5.53;;;;;;;-142.65;47.65;50170.78;5117614;28;20211;-69
2022/11/13 12:16:34;;;;;;;5.50;5.30;;;;;;;-142.65;48.33;50170.78;5117355;28;20295;-69
2022/11/13 12:19:41;;;;;;;6.53;6.27;;;;;;;-142.65;47.61;50164.81;5117521;28;20184;-69
2022/11/13 12:22:42;;;;;;;6.10;6.00;;;;;;;-142.65;47.31;50162.81;5117516;28;20326;-69
2022/11/13 12:25:42;;;;;;;5.90;5.47;;;;;;;-142.65;47.26;50162.81;5117371;28;20258;-69
2022/11/13 12:28:37;;;;;;;5.60;5.37;;;;;;;;;;5117277;28;20279;-69
2022/11/13 12:31:53;;;;;;;6.00;5.77;;;;;;;-142.65;47.91;50164.81;5117472;28;20650;-69
2022/11/13 12:34:50;;;;;;;5.77;5.57;;;;;;;-142.65;48.49;50164.81;5117728;28;20214;-69
2022/11/13 12:37:57;;;;;;;6.57;5.83;;;;;;;-142.65;47.02;50162.81;5116839;28;20197;-69
2022/11/13 12:40:59;;;;;;;5.63;5.23;;;;;;;;;;5116782;28;20181;-69
2022/11/13 12:43:47;;;;;;;5.63;5.53;;;;;;;;;;5116890;28;20675;-69
2022/11/13 12:46:35;;;;;;;5.23;5.03;;;;;;;;;;5117246;28;20250;-69
2022/11/13 12:49:34;;;;;;;4.60;4.50;;;;;;;-142.65;46.18;50164.81;5116916;28;20169;-69
2022/11/13 12:52:22;;;;;;;5.57;5.30;;;;;;;-142.65;46.38;50164.81;5115840;28;20219;-69
2022/11/13 12:55:29;;;;;;;5.13;5.00;;;;;;;-142.65;47.26;50162.81;5116760;28;20184;-69
2022/11/13 12:58:22;;;;;;;4.97;4.67;;;;;;;;;;5116592;28;20330;-69
2022/11/13 13:01:10;;;;;;;4.87;4.77;;;;;;;-142.65;47.42;50170.78;5116674;28;20184;-69
2022/11/13 13:04:16;;;;;;;4.27;4.27;;;;;;;-142.65;46.35;50170.78;5116500;28;20227;-69